Weather at Kingston Norman Rogers Airport

Public forecast

Using degrees Celsius for public forecast. Weather courtesy of forecast.io.

Current aviation weather report (METAR) for Kingston Norman Rogers Airport

2024/07/24 14:00 (retrieved 1 hour ago)

CYGK 241400Z 18011KT 15SM SCT045 SCT120 BKN250 24/22 A3003 RMK SC3AC1CI2 SLP170 DENSITY ALT 1300FT

Aviation forecast (TAF) for Kingston Norman Rogers Airport

2024/07/24 14:42 (retrieved 25 minutes ago)

TAF CYGK 241340Z 2414/2502 16012KT P6SM FEW040 SCT100 BKN250 FM241500 18012KT P6SM SCT040 BKN120 BKN220 TEMPO 2417/2423 5SM -SHRA BR BKN040 OVC080 PROB30 2419/2423 VRB15G25KT 1SM +TSRA BR BKN015 OVC040CB FM242300 21010KT P6SM FEW020 SCT040 TEMPO 2423/2502 BKN020 BKN040 RMK NXT FCST BY 242000Z